createdAt,value
2022-11-20T00:04:59.658Z,101575.41
2022-11-20T00:10:01.212Z,101566.84
2022-11-20T00:15:04.072Z,101577.59
2022-11-20T00:20:06.126Z,101584.34
2022-11-20T00:25:08.100Z,101569.16
2022-11-20T00:30:15.052Z,101570.44
2022-11-20T00:35:16.949Z,101565.00
2022-11-20T00:40:18.535Z,101557.34
2022-11-20T00:45:20.079Z,101553.53
2022-11-20T00:50:21.794Z,101562.69
2022-11-20T00:55:23.339Z,101562.66
2022-11-20T01:00:25.247Z,101563.31
2022-11-20T01:05:26.813Z,101554.97
2022-11-20T01:10:28.415Z,101565.56
2022-11-20T01:15:36.622Z,101564.03
2022-11-20T01:20:39.500Z,101563.06
2022-11-20T01:25:41.072Z,101570.84
2022-11-20T01:30:42.620Z,101569.56
2022-11-20T01:35:44.198Z,101579.25
2022-11-20T01:40:45.735Z,101569.16
2022-11-20T01:46:06.126Z,101561.41
2022-11-20T01:51:21.423Z,101562.69
2022-11-20T01:56:23.841Z,101562.47
2022-11-20T02:01:25.807Z,101552.59
2022-11-20T02:06:32.716Z,101546.75
2022-11-20T02:11:34.412Z,101546.84
2022-11-20T02:16:41.061Z,101552.09
2022-11-20T02:22:08.672Z,101540.78
2022-11-20T02:27:14.270Z,101530.00
2022-11-20T02:32:36.384Z,101515.06
2022-11-20T02:37:41.295Z,101523.94
2022-11-20T02:42:43.293Z,101506.91
2022-11-20T02:47:44.983Z,101504.03
2022-11-20T02:52:46.615Z,101499.69
2022-11-20T02:57:48.268Z,101501.56
2022-11-20T03:02:50.001Z,101500.13
2022-11-20T03:07:51.540Z,101514.72
2022-11-20T03:12:56.848Z,101519.91
2022-11-20T03:17:58.617Z,101516.13
2022-11-20T03:23:00.654Z,101506.91
2022-11-20T03:28:02.262Z,101508.34
2022-11-20T03:33:03.932Z,101508.41
2022-11-20T03:38:05.553Z,101494.03
2022-11-20T03:43:07.148Z,101501.38
2022-11-20T03:48:08.669Z,101504.03
2022-11-20T03:53:10.539Z,101497.19
2022-11-20T03:58:14.428Z,101491.25
2022-11-20T04:03:15.947Z,101478.38
2022-11-20T04:08:17.492Z,101476.38
2022-11-20T04:13:19.046Z,101483.81
2022-11-20T04:18:20.636Z,101470.66
2022-11-20T04:23:27.354Z,101469.94
2022-11-20T04:28:30.283Z,101472.72
2022-11-20T04:33:34.257Z,101476.16
2022-11-20T04:38:36.158Z,101483.38
2022-11-20T04:43:37.741Z,101481.94
2022-11-20T04:48:39.814Z,101464.91
2022-11-20T04:53:41.830Z,101462.38
2022-11-20T04:58:43.497Z,101459.03
2022-11-20T05:03:46.000Z,101446.44
2022-11-20T05:08:47.934Z,101457.81
2022-11-20T05:13:50.845Z,101455.81
2022-11-20T05:18:55.211Z,101453.00
2022-11-20T05:23:57.138Z,101462.03
2022-11-20T05:28:58.712Z,101443.78
2022-11-20T05:34:00.298Z,101455.72
2022-11-20T05:39:02.167Z,101443.84
2022-11-20T05:44:04.194Z,101449.72
2022-11-20T05:49:05.785Z,101438.50
2022-11-20T05:54:07.362Z,101431.03
2022-11-20T05:59:09.123Z,101429.59
2022-11-20T06:04:10.769Z,101420.69
2022-11-20T06:09:12.851Z,101428.59
2022-11-20T06:14:14.453Z,101426.50
2022-11-20T06:19:16.298Z,101443.50
2022-11-20T06:24:18.391Z,101450.31
2022-11-20T06:29:20.445Z,101447.78
2022-11-20T06:34:22.327Z,101449.25
2022-11-20T06:39:24.153Z,101436.44
2022-11-20T06:44:26.633Z,101428.94
2022-11-20T06:49:28.302Z,101441.16
2022-11-20T06:54:29.904Z,101441.38
2022-11-20T06:59:31.460Z,101440.22
2022-11-20T07:04:32.996Z,101450.38
2022-11-20T07:09:34.976Z,101458.69
2022-11-20T07:14:36.534Z,101451.50
2022-11-20T07:19:38.153Z,101451.50
2022-11-20T07:24:45.697Z,101452.16
2022-11-20T07:29:47.625Z,101458.13
2022-11-20T07:34:49.360Z,101454.81
2022-11-20T07:39:50.944Z,101458.88
2022-11-20T07:44:52.592Z,101456.81
2022-11-20T07:49:54.238Z,101441.75
2022-11-20T07:54:55.850Z,101436.53
2022-11-20T07:59:57.475Z,101445.91
2022-11-20T08:04:59.047Z,101425.56
2022-11-20T08:10:00.641Z,101435.63
2022-11-20T08:15:02.234Z,101448.47
2022-11-20T08:20:04.347Z,101450.81
2022-11-20T08:25:06.254Z,101449.28
2022-11-20T08:30:08.727Z,101448.16
2022-11-20T08:35:10.419Z,101451.44
2022-11-20T08:40:16.952Z,101446.44
2022-11-20T08:45:21.437Z,101440.22
2022-11-20T08:50:22.980Z,101443.47
2022-11-20T08:55:24.638Z,101439.56
2022-11-20T09:00:26.310Z,101433.44
2022-11-20T09:05:28.539Z,101433.19
2022-11-20T09:10:30.208Z,101434.88
2022-11-20T09:15:33.600Z,101424.13
2022-11-20T09:20:35.328Z,101419.44
2022-11-20T09:25:36.993Z,101416.50
2022-11-20T09:30:38.643Z,101415.91
2022-11-20T09:35:40.271Z,101399.44
2022-11-20T09:40:48.046Z,101401.53
2022-11-20T09:45:59.606Z,101395.06
2022-11-20T09:51:23.118Z,101391.94
2022-11-20T09:56:26.688Z,101389.81
2022-11-20T10:01:34.948Z,101382.50
2022-11-20T10:06:43.116Z,101374.53
2022-11-20T10:12:12.747Z,101370.38
2022-11-20T10:17:21.293Z,101357.56
2022-11-20T10:22:41.447Z,101351.81
2022-11-20T10:28:14.070Z,101332.28
2022-11-20T10:33:23.912Z,101331.34
2022-11-20T10:38:36.815Z,101313.69
2022-11-20T10:43:38.566Z,101290.88
2022-11-20T10:48:42.991Z,101278.59
2022-11-20T10:53:57.686Z,101280.78
2022-11-20T10:59:27.505Z,101250.44
2022-11-20T11:04:39.840Z,101237.53
2022-11-20T11:09:47.154Z,101227.66
2022-11-20T11:14:53.840Z,101209.97
2022-11-20T11:20:11.674Z,101200.00
2022-11-20T11:25:21.901Z,101185.84
2022-11-20T11:30:25.419Z,101167.72
2022-11-20T11:35:29.690Z,101129.97
2022-11-20T11:40:36.310Z,101113.66
2022-11-20T11:45:37.875Z,101108.78
2022-11-20T11:50:49.397Z,101096.31
2022-11-20T11:56:20.733Z,101091.53
2022-11-20T12:01:51.088Z,101090.47
2022-11-20T12:07:06.075Z,101086.16
2022-11-20T12:12:21.085Z,101085.00
2022-11-20T12:17:23.938Z,101079.94
2022-11-20T12:22:25.487Z,101078.94
2022-11-20T12:27:51.194Z,101064.69
2022-11-20T12:33:01.917Z,101047.88
2022-11-20T12:38:27.881Z,101035.78
2022-11-20T12:43:56.148Z,101015.06
2022-11-20T12:49:13.257Z,101011.53
2022-11-20T12:54:57.242Z,101011.63
2022-11-20T13:00:11.918Z,101008.63
2022-11-20T13:05:28.047Z,100993.38
2022-11-20T13:10:50.914Z,100996.91
2022-11-20T13:16:08.401Z,100988.00
2022-11-20T13:21:36.197Z,100993.75
2022-11-20T13:26:37.887Z,100990.03
2022-11-20T13:31:45.223Z,100970.63
2022-11-20T13:36:52.475Z,100952.66
2022-11-20T13:42:00.359Z,100964.25
2022-11-20T13:47:02.447Z,101028.16
2022-11-20T13:52:50.022Z,101023.06
2022-11-20T13:58:16.812Z,101035.38
2022-11-20T14:03:18.349Z,101032.84
2022-11-20T14:08:34.649Z,101027.56
2022-11-20T14:13:36.950Z,101016.81
2022-11-20T14:18:38.493Z,101012.31
2022-11-20T14:23:40.062Z,100993.59
2022-11-20T14:28:41.814Z,100995.31
2022-11-20T14:33:43.484Z,100992.31
2022-11-20T14:38:47.972Z,100976.56
2022-11-20T14:43:58.518Z,100961.84
2022-11-20T14:49:03.902Z,100959.47
2022-11-20T14:54:32.263Z,100946.50
2022-11-20T14:59:35.766Z,100951.56
2022-11-20T15:04:47.497Z,100958.78
2022-11-20T15:09:49.017Z,100952.56
2022-11-20T15:14:50.689Z,100952.84
2022-11-20T15:19:54.775Z,100938.47
2022-11-20T15:24:56.374Z,100922.88
2022-11-20T15:29:57.946Z,100924.03
2022-11-20T15:34:59.784Z,100907.16
2022-11-20T15:40:01.554Z,100898.88
2022-11-20T15:45:03.509Z,100910.47
2022-11-20T15:50:10.402Z,100908.81
2022-11-20T15:55:12.123Z,100907.84
2022-11-20T16:00:16.173Z,100900.34
2022-11-20T16:05:19.868Z,100892.63
2022-11-20T16:10:21.560Z,100897.50
2022-11-20T16:15:41.805Z,100899.25
2022-11-20T16:20:43.928Z,100903.44
2022-11-20T16:25:45.776Z,100913.88
2022-11-20T16:30:47.413Z,100905.31
2022-11-20T16:35:48.935Z,100908.72
2022-11-20T16:40:50.489Z,100900.34
2022-11-20T16:45:52.083Z,100888.50
2022-11-20T16:50:54.075Z,100891.25
2022-11-20T16:55:55.680Z,100888.81
2022-11-20T17:00:59.686Z,100894.56
2022-11-20T17:06:01.657Z,100885.78
2022-11-20T17:11:07.917Z,100878.06
2022-11-20T17:16:15.756Z,100874.66
2022-11-20T17:21:18.665Z,100861.78
2022-11-20T17:26:23.514Z,100850.84
2022-11-20T17:31:26.396Z,100829.38
2022-11-20T17:36:29.341Z,100825.38
2022-11-20T17:41:30.915Z,100824.09
2022-11-20T17:46:34.298Z,100813.97
2022-11-20T17:51:36.066Z,100808.72
2022-11-20T17:56:56.225Z,100805.09
2022-11-20T18:02:03.327Z,100794.19
2022-11-20T18:07:05.641Z,100792.97
2022-11-20T18:12:07.421Z,100783.72
2022-11-20T18:17:12.111Z,100777.09
2022-11-20T18:22:16.161Z,100779.63
2022-11-20T18:27:20.681Z,100783.81
2022-11-20T18:32:22.922Z,100780.41
2022-11-20T18:37:24.439Z,100792.69
2022-11-20T18:42:55.154Z,100777.09
2022-11-20T18:47:56.687Z,100786.06
2022-11-20T18:52:58.304Z,100787.72
2022-11-20T18:57:59.869Z,100789.66
2022-11-20T19:03:01.413Z,100784.31
2022-11-20T19:08:03.005Z,100786.06
2022-11-20T19:13:05.060Z,100787.63
2022-11-20T19:18:06.645Z,100792.78
2022-11-20T19:23:08.525Z,100798.16
2022-11-20T19:28:10.078Z,100799.53
2022-11-20T19:33:11.959Z,100809.75
2022-11-20T19:38:13.762Z,100808.78
2022-11-20T19:43:15.441Z,100811.22
2022-11-20T19:48:16.999Z,100807.41
2022-11-20T19:53:21.411Z,100818.25
2022-11-20T19:58:23.072Z,100818.84
2022-11-20T20:03:24.705Z,100817.97
2022-11-20T20:08:26.382Z,100820.41
2022-11-20T20:13:28.058Z,100820.63
2022-11-20T20:18:29.646Z,100827.41
2022-11-20T20:23:31.806Z,100834.06
2022-11-20T20:28:34.162Z,100838.75
2022-11-20T20:33:40.924Z,100844.59
2022-11-20T20:38:43.404Z,100852.22
2022-11-20T20:44:03.654Z,100864.00
2022-11-20T20:49:05.800Z,100867.06
2022-11-20T20:54:07.522Z,100875.81
2022-11-20T20:59:10.195Z,100889.38
2022-11-20T21:04:11.967Z,100899.22
2022-11-20T21:09:13.583Z,100890.06
2022-11-20T21:14:15.227Z,100902.56
2022-11-20T21:19:17.102Z,100910.03
2022-11-20T21:24:18.808Z,100918.16
2022-11-20T21:29:24.875Z,100920.47
2022-11-20T21:34:26.682Z,100933.44
2022-11-20T21:39:30.328Z,100937.63
2022-11-20T21:44:32.431Z,100942.13
2022-11-20T21:49:36.500Z,100950.91
2022-11-20T21:54:38.044Z,100947.84
2022-11-20T21:59:39.585Z,100949.28
2022-11-20T22:04:41.720Z,100951.63
2022-11-20T22:09:43.287Z,100953.41
2022-11-20T22:14:45.924Z,100957.84
2022-11-20T22:19:47.604Z,100966.44
2022-11-20T22:24:49.141Z,100975.59
2022-11-20T22:29:50.689Z,100982.09
2022-11-20T22:34:52.334Z,100980.44
2022-11-20T22:39:53.982Z,100995.63
2022-11-20T22:44:55.509Z,100997.31
2022-11-20T22:49:57.052Z,101004.13
2022-11-20T22:54:58.822Z,101007.34
2022-11-20T23:00:00.453Z,101008.81
2022-11-20T23:05:02.691Z,101019.72
2022-11-20T23:10:04.867Z,101007.38
2022-11-20T23:15:07.285Z,101015.66
2022-11-20T23:20:10.214Z,101021.16
2022-11-20T23:25:11.769Z,101026.75
2022-11-20T23:30:13.278Z,101026.66
2022-11-20T23:35:14.995Z,101025.22
2022-11-20T23:40:16.630Z,101039.84
2022-11-20T23:45:18.221Z,101042.38
2022-11-20T23:50:19.911Z,101041.97
2022-11-20T23:55:21.450Z,101049.38
